Other Surface Observations
Issued by NWS Missoula, MT

Home | Current Version | Previous Version | Text Only | Print | Product List | Glossary On
Versions: 1 2 3 4 5 6 7 8 9 10 11 12 13 14 15 16 17 18 19 20 21 22 23 24 25 26 27 28 29 30 31 32 33 34 35 36 37 38 39 40 41 42 43 44 45 46 47 48 49 50
813
SXUS55 KMSO 061403
OSOMSO
MONTANA AWOS SUMMARY
NATIONAL WEATHER SERVICE MISSOULA MT
703 AM MST SAT FEB 6 2016

Montana AWOS Reports

ROUNDUP     |KRPX 061355Z AUTO 21005KT 40SM 05/M07 A2983 RMK AO1 T00501071
TWIN BRIDGES|K7S1 061355Z AUTO 17015KT 40SM M03/M10 A3011 RMK AO1 T10271099
PLAINS      |KS34 061355Z AUTO 20017G24KT 40SM 05/M04 A3014 RMK AO1 T00501038
SCOBEY      |K9S2 061355Z AUTO 22006KT 40SM 04/M06 A2970 RMK AO1 T00391060




USA.gov is the U.S. government's official web portal to all federal, state and local government web resources and services.